Time;durP1;ratioP1;P1;durP2;ratioP2;P2;SDS_P1;SDS_P2;PMS_P1;PMS_P2;Temp;Humidity;BMP_temperature;BMP_pressure;BME280_temperature;BME280_humidity;BME280_pressure;Samples;Min_cycle;Max_cycle;Signal;HPM_P1;HPM_P2
2022/02/10 00:06:34;;;;;;;6.37;2.93;;;8.90;97.30;;;;;;5034932;28;20988;-82
2022/02/10 00:19:45;;;;;;;7.00;3.10;;;8.90;97.30;;;;;;5034193;28;20415;-82
2022/02/10 00:35:46;;;;;;;5.53;3.20;;;8.80;97.30;;;;;;5034918;28;20940;-81
2022/02/10 00:38:12;;;;;;;6.50;3.20;;;8.80;97.30;;;;;;5032216;28;20415;-82
2022/02/10 00:40:37;;;;;;;5.47;3.23;;;8.80;97.30;;;;;;5033108;28;20411;-82
2022/02/10 00:43:05;;;;;;;6.87;3.90;;;8.80;97.30;;;;;;5032726;28;20211;-82
2022/02/10 00:45:32;;;;;;;5.00;3.20;;;8.80;97.30;;;;;;5032098;28;20270;-82
2022/02/10 00:48:06;;;;;;;3.77;2.73;;;8.80;97.30;;;;;;5032501;28;20455;-82
2022/02/10 00:50:33;;;;;;;5.20;4.00;;;8.80;97.30;;;;;;5033728;28;20466;-82
2022/02/10 00:53:09;;;;;;;5.50;3.20;;;8.80;97.30;;;;;;5041573;28;20443;-84
2022/02/10 00:55:38;;;;;;;7.70;3.60;;;8.70;97.30;;;;;;5034479;28;20427;-81
2022/02/10 00:58:07;;;;;;;5.90;3.03;;;8.70;97.30;;;;;;5031689;28;20865;-82
2022/02/10 01:30:14;;;;;;;8.20;3.23;;;8.60;97.30;;;;;;5033427;28;20510;-82
2022/02/10 01:32:43;;;;;;;8.03;2.77;;;8.60;97.30;;;;;;5033034;28;20485;-82
2022/02/10 01:35:12;;;;;;;4.93;3.00;;;8.60;97.30;;;;;;5031125;28;20411;-84
2022/02/10 01:37:39;;;;;;;4.83;2.50;;;8.50;97.30;;;;;;5034232;28;20494;-83
2022/02/10 01:40:38;;;;;;;7.40;3.57;;;8.60;97.30;;;;;;5025447;28;20467;-83
2022/02/10 02:04:47;;;;;;;7.30;2.87;;;8.60;97.30;;;;;;5033649;28;20414;-84
2022/02/10 02:07:13;;;;;;;3.37;2.60;;;8.60;97.30;;;;;;5032191;28;20467;-84
2022/02/10 02:09:38;;;;;;;4.57;2.70;;;8.60;97.30;;;;;;5032014;28;20251;-83
2022/02/10 02:12:08;;;;;;;5.30;3.10;;;8.60;97.30;;;;;;5032377;28;20195;-83
2022/02/10 02:14:36;;;;;;;5.07;2.77;;;8.60;97.30;;;;;;5031818;28;20204;-84
2022/02/10 02:17:04;;;;;;;3.10;2.57;;;8.50;97.30;;;;;;5032668;28;20419;-83
2022/02/10 02:19:34;;;;;;;3.97;2.10;;;8.60;97.30;;;;;;5036075;28;20419;-83
2022/02/10 02:22:07;;;;;;;3.60;2.60;;;8.60;97.30;;;;;;5035456;28;20446;-83
2022/02/10 02:24:34;;;;;;;5.10;2.63;;;8.60;97.30;;;;;;5036509;28;20415;-83
2022/02/10 02:27:03;;;;;;;4.90;2.70;;;8.60;97.30;;;;;;5035457;28;20965;-83
2022/02/10 02:29:35;;;;;;;5.93;2.90;;;8.60;97.30;;;;;;5035869;28;20438;-83
2022/02/10 02:32:06;;;;;;;5.87;2.80;;;8.60;97.30;;;;;;5036665;28;20427;-83
2022/02/10 03:10:04;;;;;;;7.60;2.97;;;8.50;97.30;;;;;;5016944;28;20784;-83
2022/02/10 03:12:30;;;;;;;3.00;2.33;;;8.50;97.30;;;;;;5030764;28;20442;-83
2022/02/10 03:14:59;;;;;;;4.40;2.70;;;8.40;97.30;;;;;;5030905;28;20503;-83
2022/02/10 03:17:41;;;;;;;6.93;3.30;;;8.40;97.30;;;;;;5030432;28;20783;-84
2022/02/10 03:20:23;;;;;;;5.80;3.63;;;8.40;97.30;;;;;;5030694;28;20416;-83
2022/02/10 04:03:54;;;;;;;7.00;3.43;;;8.10;97.30;;;;;;5034841;28;20948;-82
2022/02/10 04:14:08;;;;;;;4.40;2.87;;;8.10;97.30;;;;;;5034538;28;20982;-83
2022/02/10 04:16:42;;;;;;;5.87;3.07;;;8.10;97.30;;;;;;5034476;28;20529;-82
2022/02/10 04:21:54;;;;;;;5.10;3.23;;;8.10;97.30;;;;;;5033509;28;20438;-82
2022/02/10 04:24:41;;;;;;;6.23;4.00;;;8.10;97.30;;;;;;5032145;28;20454;-82
2022/02/10 04:27:19;;;;;;;7.67;4.17;;;8.10;97.30;;;;;;5032201;28;20462;-82
2022/02/10 04:30:18;;;;;;;8.50;3.73;;;8.00;97.30;;;;;;5031542;28;20412;-83
2022/02/10 04:37:21;;;;;;;6.33;3.50;;;8.00;97.30;;;;;;5033228;28;20551;-83
2022/02/10 04:59:43;;;;;;;8.10;4.07;;;7.60;97.30;;;;;;5033957;28;20421;-82
2022/02/10 05:08:32;;;;;;;8.10;3.97;;;7.40;97.30;;;;;;5002510;28;20511;-82
2022/02/10 05:14:14;;;;;;;6.57;3.97;;;7.30;97.30;;;;;;5013451;28;20972;-83
2022/02/10 05:18:57;;;;;;;8.47;4.57;;;7.10;97.30;;;;;;5013271;28;20466;-83
2022/02/10 05:32:25;;;;;;;17.27;7.90;;;7.00;97.30;;;;;;5028579;28;20504;-82
2022/02/10 05:34:57;;;;;;;13.77;7.80;;;7.00;97.30;;;;;;5023466;28;20945;-86
2022/02/10 05:37:28;;;;;;;9.87;5.10;;;6.90;97.30;;;;;;5018214;28;20424;-86
2022/02/10 05:39:57;;;;;;;8.33;4.30;;;6.90;97.30;;;;;;5028212;28;20429;-85
2022/02/10 05:43:03;;;;;;;9.43;4.40;;;6.90;97.30;;;;;;5028521;28;20464;-85
2022/02/10 05:45:35;;;;;;;8.70;3.97;;;6.80;97.30;;;;;;5018333;28;20411;-85
2022/02/10 05:53:34;;;;;;;15.80;5.00;;;6.70;97.30;;;;;;5023271;28;20254;-85
2022/02/10 05:56:02;;;;;;;9.70;4.10;;;6.70;97.30;;;;;;5029285;28;20415;-85
2022/02/10 05:58:53;;;;;;;8.50;4.63;;;6.70;97.30;;;;;;5024827;28;20511;-85
2022/02/10 06:42:20;;;;;;;11.80;5.90;;;6.20;97.30;;;;;;5031017;28;20390;-85
2022/02/10 06:54:11;;;;;;;16.27;6.83;;;6.10;97.30;;;;;;5030221;28;20483;-85
2022/02/10 07:10:17;;;;;;;13.80;6.80;;;6.10;97.30;;;;;;5013487;28;20474;-83
2022/02/10 07:59:28;;;;;;;12.00;7.03;;;6.70;97.30;;;;;;5002733;28;20412;-84
2022/02/10 08:05:17;;;;;;;9.73;5.33;;;6.90;97.30;;;;;;5028221;28;20502;-85
2022/02/10 08:27:58;;;;;;;18.27;7.60;;;7.20;97.30;;;;;;5033924;28;20500;-80
2022/02/10 08:56:42;;;;;;;12.43;5.93;;;8.10;97.30;;;;;;5036880;28;20454;-81
2022/02/10 08:59:44;;;;;;;8.37;4.97;;;8.20;97.30;;;;;;5030770;28;20431;-80
2022/02/10 09:04:52;;;;;;;9.30;5.70;;;8.40;97.30;;;;;;5033809;28;20433;-80
2022/02/10 09:13:21;;;;;;;10.63;4.90;;;8.80;97.30;;;;;;5033395;28;20442;-80
2022/02/10 09:16:21;;;;;;;11.07;5.30;;;8.90;97.30;;;;;;5023633;28;20814;-80
2022/02/10 09:52:19;;;;;;;9.00;4.50;;;9.80;97.30;;;;;;5031052;28;20464;-79
2022/02/10 09:54:59;;;;;;;8.10;4.47;;;10.00;97.30;;;;;;5030587;28;20450;-80
2022/02/10 10:00:04;;;;;;;6.63;4.20;;;9.90;97.30;;;;;;5031289;28;20414;-80
2022/02/10 10:02:37;;;;;;;8.17;4.17;;;9.80;97.30;;;;;;5030061;28;20439;-80
2022/02/10 10:13:23;;;;;;;8.63;4.20;;;9.50;97.30;;;;;;5033993;28;20454;-81
2022/02/10 10:18:43;;;;;;;8.67;4.47;;;9.80;97.30;;;;;;5034423;28;20419;-80
2022/02/10 10:57:11;;;;;;;9.73;4.73;;;11.10;93.40;;;;;;5038043;28;20415;-81
2022/02/10 10:59:54;;;;;;;8.20;4.73;;;11.10;92.90;;;;;;5032790;28;20550;-79
2022/02/10 11:39:23;;;;;;;6.37;4.40;;;11.80;91.90;;;;;;5035424;28;20434;-78
2022/02/10 11:42:05;;;;;;;9.10;4.00;;;11.50;92.50;;;;;;5033782;28;20441;-79
2022/02/10 11:48:01;;;;;;;11.80;4.30;;;11.20;93.90;;;;;;5035588;28;21024;-79
2022/02/10 12:00:37;;;;;;;8.83;5.13;;;10.50;95.00;;;;;;5032458;28;20847;-79
2022/02/10 13:29:15;;;;;;;13.87;6.07;;;8.60;97.30;;;;;;5033529;28;20454;-79
2022/02/10 13:32:01;;;;;;;17.73;6.80;;;8.50;97.30;;;;;;5032990;28;20514;-79
2022/02/10 13:48:48;;;;;;;14.33;8.00;;;8.50;97.30;;;;;;5033978;28;20461;-81
2022/02/10 14:12:54;;;;;;;16.50;8.17;;;8.50;97.30;;;;;;5026659;28;20439;-81
2022/02/10 14:17:50;;;;;;;25.77;9.00;;;8.50;97.30;;;;;;5034745;28;20485;-80
2022/02/10 14:20:39;;;;;;;18.13;9.03;;;8.40;97.30;;;;;;5036365;28;20184;-80
2022/02/10 14:23:19;;;;;;;13.70;7.77;;;8.40;97.30;;;;;;5034009;28;20828;-80
2022/02/10 14:28:17;;;;;;;21.50;9.47;;;8.40;97.30;;;;;;5031936;28;20474;-80
2022/02/10 14:30:43;;;;;;;15.77;8.13;;;8.40;97.30;;;;;;5027408;28;20419;-80
2022/02/10 14:33:09;;;;;;;16.87;8.20;;;8.40;97.30;;;;;;5024015;28;20759;-80
2022/02/10 14:35:49;;;;;;;18.40;9.00;;;8.30;97.30;;;;;;5035145;28;20500;-80
2022/02/10 15:11:27;;;;;;;17.13;9.70;;;7.80;97.30;;;;;;5037005;28;20517;-79
2022/02/10 15:14:49;;;;;;;20.50;10.37;;;7.70;97.30;;;;;;5039944;28;20481;-80
2022/02/10 15:51:14;;;;;;;18.93;9.00;;;7.80;97.30;;;;;;5037087;28;20187;-81
2022/02/10 15:54:01;;;;;;;24.63;9.97;;;7.80;97.30;;;;;;5040034;28;20402;-80
2022/02/10 16:17:25;;;;;;;23.10;10.10;;;7.70;97.30;;;;;;5035325;28;20469;-80
2022/02/10 16:19:53;;;;;;;17.40;9.93;;;7.70;97.30;;;;;;5033026;28;20427;-79
2022/02/10 16:24:50;;;;;;;16.90;9.53;;;7.70;97.30;;;;;;5034163;28;20427;-80
2022/02/10 16:27:22;;;;;;;18.57;8.97;;;7.70;97.30;;;;;;5033759;28;20565;-80
2022/02/10 16:29:48;;;;;;;16.97;9.13;;;7.70;97.30;;;;;;5031975;28;20415;-80
2022/02/10 16:32:14;;;;;;;21.20;10.37;;;7.70;97.30;;;;;;5031465;28;20531;-79
2022/02/10 16:34:43;;;;;;;19.33;10.87;;;7.60;97.30;;;;;;5033534;28;20427;-80
2022/02/10 16:37:12;;;;;;;16.20;9.60;;;7.60;97.30;;;;;;5031228;28;20796;-79
2022/02/10 16:39:39;;;;;;;26.83;10.10;;;7.60;97.30;;;;;;5031117;28;20461;-79
2022/02/10 16:42:06;;;;;;;18.20;9.70;;;7.60;97.30;;;;;;5032939;28;20504;-80
2022/02/10 16:44:33;;;;;;;22.27;11.53;;;7.60;97.30;;;;;;5032565;28;20419;-80
2022/02/10 16:47:00;;;;;;;21.10;10.00;;;7.60;97.30;;;;;;5032666;28;20538;-79
2022/02/10 16:49:27;;;;;;;22.10;9.90;;;7.60;97.30;;;;;;5031068;28;20434;-80
2022/02/10 16:51:54;;;;;;;19.77;10.87;;;7.60;97.30;;;;;;5031021;28;21011;-79
2022/02/10 16:54:27;;;;;;;16.37;8.47;;;7.60;97.30;;;;;;5030811;28;20451;-80
2022/02/10 16:57:04;;;;;;;16.20;8.73;;;7.50;97.30;;;;;;5031545;28;20984;-80
2022/02/10 17:18:10;;;;;;;21.70;11.17;;;7.10;97.30;;;;;;5032885;28;20423;-80
2022/02/10 17:28:50;;;;;;;26.77;9.63;;;7.10;97.30;;;;;;5032756;28;20465;-80
2022/02/10 17:36:37;;;;;;;19.30;10.17;;;7.00;97.30;;;;;;5011766;28;20388;-80
2022/02/10 17:44:34;;;;;;;18.73;10.20;;;6.90;97.30;;;;;;5031205;28;20407;-80
2022/02/10 17:52:20;;;;;;;23.23;10.83;;;6.80;97.30;;;;;;5033515;28;20454;-79
2022/02/10 17:54:46;;;;;;;26.03;10.40;;;6.80;97.30;;;;;;5031669;28;20494;-79
2022/02/10 17:57:13;;;;;;;22.17;10.40;;;6.80;97.30;;;;;;5031854;28;20426;-80
2022/02/10 17:59:39;;;;;;;29.30;11.57;;;6.80;97.30;;;;;;5032349;28;20415;-80
2022/02/10 18:02:04;;;;;;;25.00;12.10;;;6.70;97.30;;;;;;5032827;28;20442;-80
2022/02/10 18:04:31;;;;;;;25.80;12.40;;;6.70;97.30;;;;;;5034031;28;20271;-80
2022/02/10 18:06:58;;;;;;;23.40;10.50;;;6.80;97.30;;;;;;5032826;28;20205;-80
2022/02/10 18:09:55;;;;;;;22.50;10.87;;;6.80;97.30;;;;;;5031121;28;20801;-80
2022/02/10 18:14:47;;;;;;;26.63;11.30;;;6.80;97.30;;;;;;5033606;28;20902;-80
2022/02/10 18:17:23;;;;;;;30.40;13.40;;;6.70;97.30;;;;;;5033859;28;20536;-80
2022/02/10 18:19:54;;;;;;;23.77;11.53;;;6.70;97.30;;;;;;5032616;28;20468;-80
2022/02/10 18:25:10;;;;;;;26.17;11.73;;;6.70;97.30;;;;;;5033744;28;20445;-80
2022/02/10 18:27:43;;;;;;;32.87;12.83;;;6.80;97.30;;;;;;5017535;28;20774;-80
2022/02/10 18:54:24;;;;;;;28.20;12.13;;;6.80;97.30;;;;;;5032594;28;20429;-80
2022/02/10 19:10:07;;;;;;;32.57;12.37;;;6.80;97.30;;;;;;5036741;28;20866;-80
2022/02/10 19:12:43;;;;;;;23.13;11.70;;;6.80;97.30;;;;;;5034705;28;20423;-80
2022/02/10 19:15:22;;;;;;;26.20;10.77;;;6.80;97.30;;;;;;5034545;28;20582;-80
2022/02/10 19:17:49;;;;;;;28.60;13.10;;;6.70;97.30;;;;;;5034931;28;20940;-80
2022/02/10 19:20:19;;;;;;;35.50;13.13;;;6.80;97.30;;;;;;5036867;28;20552;-80
2022/02/10 19:22:45;;;;;;;30.17;12.77;;;6.80;97.30;;;;;;5034922;28;20457;-80
2022/02/10 19:25:13;;;;;;;39.03;12.47;;;6.80;97.30;;;;;;5035439;28;20423;-80
2022/02/10 19:27:40;;;;;;;30.40;12.93;;;6.80;97.30;;;;;;5033572;28;20470;-80
2022/02/10 19:30:09;;;;;;;24.40;11.83;;;6.80;97.30;;;;;;5034508;28;20415;-80
2022/02/10 19:32:36;;;;;;;27.77;11.57;;;6.80;97.30;;;;;;5033767;28;20450;-80
2022/02/10 19:35:03;;;;;;;28.60;12.50;;;6.80;97.30;;;;;;5033741;28;20420;-80
2022/02/10 19:37:30;;;;;;;23.90;11.33;;;6.80;97.30;;;;;;5033286;28;20924;-80
2022/02/10 19:39:59;;;;;;;29.97;12.30;;;6.80;97.30;;;;;;5031776;28;20485;-81
2022/02/10 19:42:29;;;;;;;24.50;11.30;;;6.80;97.30;;;;;;5040183;28;20443;-82
2022/02/10 19:44:59;;;;;;;27.97;12.40;;;6.70;97.30;;;;;;5039514;28;20970;-81
2022/02/10 19:47:29;;;;;;;27.33;12.00;;;6.70;97.30;;;;;;5039812;28;20542;-82
2022/02/10 19:49:56;;;;;;;24.23;10.20;;;6.70;97.30;;;;;;5041530;28;20403;-81
2022/02/10 19:52:23;;;;;;;21.87;10.50;;;6.70;97.30;;;;;;5036325;28;20427;-79
2022/02/10 19:54:51;;;;;;;26.30;10.83;;;6.70;97.30;;;;;;5035319;28;20643;-80
2022/02/10 19:57:19;;;;;;;25.97;11.40;;;6.70;97.30;;;;;;5039587;28;20419;-81
2022/02/10 19:59:45;;;;;;;29.13;10.63;;;6.70;97.30;;;;;;5035378;28;20435;-81
2022/02/10 20:02:11;;;;;;;28.60;11.17;;;6.70;97.30;;;;;;5033424;28;20458;-81
2022/02/10 20:04:36;;;;;;;28.47;11.73;;;6.70;97.30;;;;;;5017976;28;20420;-81
2022/02/10 20:07:02;;;;;;;28.27;12.20;;;6.70;97.30;;;;;;5031956;28;20492;-86
2022/02/10 20:09:28;;;;;;;22.80;11.13;;;6.70;97.30;;;;;;5031862;28;20230;-84
2022/02/10 20:11:55;;;;;;;26.33;11.90;;;6.70;97.30;;;;;;5028220;28;20870;-84
2022/02/10 20:14:23;;;;;;;28.50;11.07;;;6.70;97.30;;;;;;5024158;28;20581;-84
2022/02/10 20:16:50;;;;;;;30.20;12.33;;;6.70;97.30;;;;;;5034042;28;20613;-84
2022/02/10 20:19:16;;;;;;;26.30;10.63;;;6.70;97.30;;;;;;5033386;28;20872;-85
2022/02/10 20:21:41;;;;;;;23.87;12.13;;;6.70;97.30;;;;;;5028303;28;20439;-84
2022/02/10 20:24:07;;;;;;;28.20;11.90;;;6.70;97.30;;;;;;5032632;28;20244;-84
2022/02/10 20:26:32;;;;;;;24.03;11.50;;;6.70;97.30;;;;;;5030772;28;20187;-85
2022/02/10 20:28:58;;;;;;;23.80;10.40;;;6.60;97.30;;;;;;5032324;28;20185;-86
2022/02/10 20:31:24;;;;;;;30.27;12.57;;;6.60;97.30;;;;;;5033531;28;20185;-85
2022/02/10 20:33:51;;;;;;;30.77;13.10;;;6.60;97.30;;;;;;5030109;28;20181;-82
2022/02/10 20:36:17;;;;;;;25.37;11.10;;;6.60;97.30;;;;;;5027705;28;20480;-83
2022/02/10 20:38:46;;;;;;;30.17;12.40;;;6.60;97.30;;;;;;5033213;28;20431;-83
2022/02/10 20:41:15;;;;;;;28.13;12.37;;;6.60;97.30;;;;;;5031307;28;20449;-82
2022/02/10 20:43:43;;;;;;;27.47;11.83;;;6.60;97.30;;;;;;5032657;28;20425;-83
2022/02/10 20:46:12;;;;;;;27.20;10.97;;;6.60;97.30;;;;;;5029092;28;20426;-83
2022/02/10 20:48:39;;;;;;;33.10;11.70;;;6.60;97.30;;;;;;5028370;28;20459;-83
2022/02/10 20:51:08;;;;;;;20.60;11.00;;;6.60;97.30;;;;;;5028176;28;20636;-83
2022/02/10 20:53:37;;;;;;;30.17;12.40;;;6.50;97.30;;;;;;5027174;28;20530;-82
2022/02/10 20:56:05;;;;;;;28.87;12.30;;;6.50;97.30;;;;;;5027864;28;20415;-83
2022/02/10 20:58:32;;;;;;;28.70;12.20;;;6.50;97.30;;;;;;5024764;28;20447;-83
2022/02/10 21:01:00;;;;;;;24.87;11.13;;;6.50;97.30;;;;;;5024998;28;20424;-83
2022/02/10 21:03:29;;;;;;;27.43;11.93;;;6.50;97.30;;;;;;5020613;28;20761;-83
2022/02/10 21:11:01;;;;;;;27.10;11.60;;;6.50;97.30;;;;;;5028694;28;20933;-83
2022/02/10 21:13:29;;;;;;;31.57;13.77;;;6.50;97.30;;;;;;5030647;28;20435;-80
2022/02/10 21:15:55;;;;;;;30.70;12.27;;;6.50;97.30;;;;;;5030866;28;20485;-80
2022/02/10 21:18:21;;;;;;;22.40;10.83;;;6.50;97.30;;;;;;5030734;28;20429;-81
2022/02/10 21:20:49;;;;;;;23.20;10.77;;;6.50;97.30;;;;;;5033052;28;20419;-81
2022/02/10 21:25:44;;;;;;;25.90;10.50;;;6.50;97.30;;;;;;5031689;28;20442;-81
2022/02/10 21:28:23;;;;;;;24.50;10.40;;;6.50;97.30;;;;;;5034626;28;20516;-80
2022/02/10 21:30:53;;;;;;;24.30;10.83;;;6.50;97.30;;;;;;5034543;28;20445;-79
2022/02/10 21:33:46;;;;;;;19.90;9.10;;;6.50;97.30;;;;;;5034786;28;20884;-80
2022/02/10 21:36:45;;;;;;;17.37;8.40;;;6.50;97.30;;;;;;5029876;28;20416;-79
2022/02/10 22:19:05;;;;;;;12.93;4.97;;;5.90;97.30;;;;;;5034058;28;20988;-80
2022/02/10 22:21:38;;;;;;;7.30;4.00;;;5.90;97.30;;;;;;5032747;28;20791;-80
2022/02/10 22:24:08;;;;;;;9.43;4.70;;;5.90;97.30;;;;;;5012611;28;20924;-80
2022/02/10 22:26:36;;;;;;;18.10;4.23;;;5.90;97.30;;;;;;5029251;28;20407;-80
2022/02/10 22:29:24;;;;;;;9.30;4.70;;;5.80;97.30;;;;;;5028897;28;20417;-81
2022/02/10 22:34:38;;;;;;;10.63;4.77;;;5.80;97.30;;;;;;5015158;28;20415;-79
2022/02/10 22:37:08;;;;;;;9.97;4.13;;;5.80;97.30;;;;;;5017778;28;20412;-80
2022/02/10 22:39:45;;;;;;;10.73;4.03;;;5.80;97.30;;;;;;5017906;28;20515;-79
2022/02/10 22:42:11;;;;;;;5.60;3.27;;;5.80;97.30;;;;;;5035863;28;20449;-79
2022/02/10 22:44:38;;;;;;;5.40;3.07;;;5.80;97.30;;;;;;5035866;28;20414;-80
2022/02/10 22:47:04;;;;;;;8.37;3.67;;;5.80;97.30;;;;;;5035425;28;20457;-80
2022/02/10 22:49:31;;;;;;;5.80;3.00;;;5.80;97.30;;;;;;5035526;28;20411;-79
2022/02/10 22:51:57;;;;;;;5.87;3.30;;;5.80;97.30;;;;;;5035697;28;20435;-80
2022/02/10 22:54:23;;;;;;;4.10;2.60;;;5.80;97.30;;;;;;5035209;28;20494;-80
2022/02/10 22:56:49;;;;;;;7.80;3.17;;;5.80;97.30;;;;;;5035525;28;20882;-79
2022/02/10 22:59:16;;;;;;;6.67;3.27;;;5.80;97.30;;;;;;5035762;28;20415;-79
2022/02/10 23:01:42;;;;;;;7.90;2.50;;;5.80;97.30;;;;;;5035065;28;20446;-79
2022/02/10 23:04:09;;;;;;;9.13;2.73;;;5.80;97.30;;;;;;5035318;28;20451;-79
2022/02/10 23:06:36;;;;;;;5.40;3.00;;;5.80;97.30;;;;;;5036732;28;20403;-80
2022/02/10 23:09:23;;;;;;;8.30;3.10;;;5.80;97.30;;;;;;5035276;28;20468;-80
2022/02/10 23:11:49;;;;;;;5.17;3.10;;;5.80;97.30;;;;;;5035819;28;20533;-80
2022/02/10 23:14:15;;;;;;;8.77;3.60;;;5.80;97.30;;;;;;5035070;28;20419;-79
2022/02/10 23:16:41;;;;;;;4.77;3.00;;;5.80;97.30;;;;;;5036173;28;20403;-79
2022/02/10 23:19:08;;;;;;;5.50;2.87;;;5.80;97.30;;;;;;5034939;28;20462;-79
2022/02/10 23:21:33;;;;;;;6.10;3.50;;;5.80;97.30;;;;;;5034813;28;20439;-80
2022/02/10 23:23:59;;;;;;;8.70;3.37;;;5.80;97.30;;;;;;5034845;28;20473;-80
2022/02/10 23:26:26;;;;;;;4.87;2.80;;;5.80;97.30;;;;;;5034877;28;20177;-80
2022/02/10 23:28:55;;;;;;;10.10;3.40;;;5.80;97.30;;;;;;5035828;28;20698;-80
2022/02/10 23:31:24;;;;;;;7.77;3.70;;;5.80;97.30;;;;;;5037158;28;20431;-79
2022/02/10 23:33:54;;;;;;;6.17;3.47;;;5.80;97.30;;;;;;5031344;28;20407;-79
2022/02/10 23:39:16;;;;;;;9.10;3.53;;;5.80;97.30;;;;;;5035984;28;20407;-79
2022/02/10 23:44:38;;;;;;;5.53;2.97;;;5.70;97.30;;;;;;5028721;28;20479;-80
2022/02/10 23:47:06;;;;;;;7.10;3.77;;;5.70;97.30;;;;;;5034538;28;20446;-80
2022/02/10 23:49:33;;;;;;;10.90;3.57;;;5.60;97.30;;;;;;5034246;28;20419;-79
2022/02/10 23:52:02;;;;;;;8.60;3.60;;;5.60;97.30;;;;;;5033442;28;20453;-79
2022/02/10 23:54:31;;;;;;;9.33;3.30;;;5.60;97.30;;;;;;5034157;28;20437;-79
2022/02/10 23:57:10;;;;;;;7.47;3.33;;;5.60;97.30;;;;;;5035554;28;20435;-79
2022/02/10 23:59:56;;;;;;;5.63;2.70;;;5.50;97.30;;;;;;5034206;28;20497;-80
